createdAt,value
2023-01-02T00:01:00.305Z,15.87
2023-01-02T00:03:27.894Z,15.96
2023-01-02T00:05:56.798Z,16.09
2023-01-02T00:08:24.270Z,15.65
2023-01-02T00:10:53.197Z,15.81
2023-01-02T00:13:21.456Z,15.84
2023-01-02T00:15:48.975Z,15.77
2023-01-02T00:18:16.515Z,15.86
2023-01-02T00:20:43.994Z,15.85
2023-01-02T00:23:12.760Z,15.80
2023-01-02T00:25:40.322Z,15.70
2023-01-02T00:28:07.760Z,15.84
2023-01-02T00:30:38.591Z,15.85
2023-01-02T00:33:06.270Z,15.83
2023-01-02T00:35:33.756Z,15.76
2023-01-02T00:38:01.178Z,15.81
2023-01-02T00:40:29.978Z,15.79
2023-01-02T00:42:57.491Z,15.86
2023-01-02T00:45:25.062Z,15.84
2023-01-02T00:47:52.547Z,15.56
2023-01-02T00:50:20.169Z,15.73
2023-01-02T00:52:47.926Z,15.78
2023-01-02T00:55:15.438Z,15.70
2023-01-02T00:57:44.160Z,15.33
2023-01-02T01:00:16.983Z,15.58
2023-01-02T01:02:47.636Z,15.73
2023-01-02T01:05:15.267Z,15.36
2023-01-02T01:07:42.684Z,15.54
2023-01-02T01:10:10.345Z,15.57
2023-01-02T01:12:37.782Z,15.56
2023-01-02T01:15:08.470Z,15.63
2023-01-02T01:17:35.994Z,15.38
2023-01-02T01:20:03.472Z,15.38
2023-01-02T01:22:30.910Z,15.62
2023-01-02T01:24:58.347Z,15.48
2023-01-02T01:27:25.863Z,15.45
2023-01-02T01:29:54.063Z,15.33
2023-01-02T01:32:22.970Z,15.27
2023-01-02T01:34:50.381Z,15.76
2023-01-02T01:37:17.824Z,15.73
2023-01-02T01:39:45.235Z,14.52
2023-01-02T01:42:14.403Z,15.45
2023-01-02T01:44:45.847Z,15.59
2023-01-02T01:47:19.856Z,15.68
2023-01-02T01:49:52.294Z,15.66
2023-01-02T01:52:23.501Z,15.70
2023-01-02T01:54:57.684Z,15.68
2023-01-02T01:57:29.513Z,15.77
2023-01-02T01:59:58.154Z,15.77
2023-01-02T02:02:28.571Z,15.65
2023-01-02T02:05:00.617Z,15.84
2023-01-02T02:07:28.568Z,15.79
2023-01-02T02:10:01.085Z,15.69
2023-01-02T02:12:30.359Z,15.54
2023-01-02T02:14:57.775Z,15.62
2023-01-02T02:17:34.202Z,15.69
2023-01-02T02:20:14.081Z,15.79
2023-01-02T02:23:20.518Z,15.88
2023-01-02T02:26:21.107Z,15.64
2023-01-02T02:29:27.623Z,15.79
2023-01-02T02:32:06.002Z,15.50
2023-01-02T02:34:40.990Z,15.74
2023-01-02T02:37:18.750Z,15.80
2023-01-02T02:40:01.357Z,15.78
2023-01-02T02:42:40.311Z,15.80
2023-01-02T02:45:15.032Z,15.62
2023-01-02T02:47:50.307Z,15.83
2023-01-02T02:50:25.318Z,15.77
2023-01-02T02:52:58.061Z,15.63
2023-01-02T02:55:30.109Z,15.70
2023-01-02T02:57:59.448Z,15.78
2023-01-02T03:00:27.015Z,14.70
2023-01-02T03:02:55.956Z,14.71
2023-01-02T03:05:30.702Z,15.41
2023-01-02T03:08:06.153Z,15.65
2023-01-02T03:10:44.002Z,15.58
2023-01-02T03:13:18.453Z,15.55
2023-01-02T03:15:54.882Z,15.41
2023-01-02T03:18:35.478Z,15.61
2023-01-02T03:21:08.230Z,15.63
2023-01-02T03:23:40.390Z,15.60
2023-01-02T03:26:08.249Z,15.79
2023-01-02T03:28:38.671Z,15.75
2023-01-02T03:31:10.739Z,15.70
2023-01-02T03:33:44.385Z,15.77
2023-01-02T03:36:17.803Z,15.63
2023-01-02T03:38:52.996Z,15.80
2023-01-02T03:41:24.307Z,15.71
2023-01-02T03:43:57.080Z,15.67
2023-01-02T03:46:33.221Z,15.76
2023-01-02T03:49:07.383Z,15.69
2023-01-02T03:51:35.855Z,15.64
2023-01-02T03:54:03.741Z,15.40
2023-01-02T03:56:41.877Z,15.81
2023-01-02T03:59:16.794Z,16.06
2023-01-02T04:01:50.509Z,15.86
2023-01-02T04:04:27.144Z,15.73
2023-01-02T04:06:59.113Z,15.65
2023-01-02T04:09:30.381Z,15.57
2023-01-02T04:12:02.909Z,15.47
2023-01-02T04:14:35.338Z,15.41
2023-01-02T04:17:05.631Z,15.64
2023-01-02T04:19:39.183Z,15.41
2023-01-02T04:22:11.249Z,15.63
2023-01-02T04:24:43.322Z,15.65
2023-01-02T04:27:14.802Z,15.89
2023-01-02T04:29:42.406Z,15.87
2023-01-02T04:32:15.535Z,15.65
2023-01-02T04:34:46.755Z,15.88
2023-01-02T04:37:28.235Z,15.79
2023-01-02T04:40:00.511Z,15.93
2023-01-02T04:42:28.009Z,16.13
2023-01-02T04:44:55.444Z,15.64
2023-01-02T04:47:22.957Z,15.77
2023-01-02T04:49:51.694Z,15.92
2023-01-02T04:52:19.196Z,16.09
2023-01-02T04:54:46.645Z,16.07
2023-01-02T04:57:14.106Z,16.02
2023-01-02T04:59:41.589Z,16.19
2023-01-02T05:02:09.126Z,16.22
2023-01-02T05:04:36.640Z,16.01
2023-01-02T05:07:05.722Z,16.13
2023-01-02T05:09:33.176Z,16.22
2023-01-02T05:12:00.775Z,16.22
2023-01-02T05:14:30.748Z,15.93
2023-01-02T05:16:58.168Z,16.02
2023-01-02T05:19:25.632Z,16.23
2023-01-02T05:22:10.639Z,16.18
2023-01-02T05:24:39.402Z,16.00
2023-01-02T05:27:06.793Z,15.98
2023-01-02T05:29:34.231Z,16.09
2023-01-02T05:32:01.659Z,16.00
2023-01-02T05:34:29.112Z,16.24
2023-01-02T05:36:56.549Z,16.34
2023-01-02T05:39:24.088Z,16.23
2023-01-02T05:41:52.861Z,16.05
2023-01-02T05:44:20.301Z,15.81
2023-01-02T05:46:47.758Z,15.91
2023-01-02T05:49:15.215Z,15.79
2023-01-02T05:51:42.647Z,15.73
2023-01-02T05:54:10.381Z,15.70
2023-01-02T05:56:37.803Z,16.08
2023-01-02T05:59:09.222Z,16.01
2023-01-02T06:01:37.008Z,16.05
2023-01-02T06:04:04.871Z,15.25
2023-01-02T06:06:34.857Z,15.54
2023-01-02T06:09:02.915Z,15.52
2023-01-02T06:11:30.969Z,15.54
2023-01-02T06:13:58.911Z,15.71
2023-01-02T06:16:28.300Z,15.95
2023-01-02T06:18:56.233Z,16.02
2023-01-02T06:21:24.526Z,16.20
2023-01-02T06:23:55.926Z,15.97
2023-01-02T06:26:27.688Z,15.39
2023-01-02T06:28:58.497Z,15.62
2023-01-02T06:31:29.691Z,15.51
2023-01-02T06:33:58.707Z,16.03
2023-01-02T06:36:27.830Z,15.77
2023-01-02T06:38:55.260Z,16.19
2023-01-02T06:41:22.760Z,15.54
2023-01-02T06:43:51.394Z,15.48
2023-01-02T06:46:20.612Z,15.68
2023-01-02T06:48:49.792Z,15.72
2023-01-02T06:51:19.567Z,15.62
2023-01-02T06:53:47.496Z,15.97
2023-01-02T06:56:17.470Z,15.60
2023-01-02T06:58:44.982Z,16.17
2023-01-02T07:01:16.756Z,15.96
2023-01-02T07:03:44.581Z,16.24
2023-01-02T07:06:15.548Z,16.38
2023-01-02T07:08:44.002Z,16.23
2023-01-02T07:11:14.157Z,15.73
2023-01-02T07:13:43.418Z,16.17
2023-01-02T07:16:13.748Z,16.36
2023-01-02T07:18:41.909Z,16.42
2023-01-02T07:21:11.340Z,16.13
2023-01-02T07:23:41.490Z,16.25
2023-01-02T07:26:09.567Z,16.05
2023-01-02T07:28:37.989Z,16.46
2023-01-02T07:31:09.111Z,16.47
2023-01-02T07:33:36.847Z,16.16
2023-01-02T07:36:07.264Z,16.46
2023-01-02T07:38:35.641Z,16.34
2023-01-02T07:41:04.500Z,16.52
2023-01-02T07:43:31.996Z,16.54
2023-01-02T07:46:04.046Z,16.34
2023-01-02T07:48:31.633Z,16.40
2023-01-02T07:51:01.458Z,16.09
2023-01-02T07:53:29.104Z,16.42
2023-01-02T07:55:57.491Z,16.59
2023-01-02T07:58:26.431Z,15.90
2023-01-02T08:00:58.399Z,16.07
2023-01-02T08:03:29.090Z,15.83
2023-01-02T08:06:02.803Z,16.40
2023-01-02T08:08:30.235Z,16.49
2023-01-02T08:10:57.830Z,16.58
2023-01-02T08:13:26.597Z,16.31
2023-01-02T08:15:54.049Z,16.46
2023-01-02T08:18:21.488Z,16.31
2023-01-02T08:20:48.933Z,16.30
2023-01-02T08:23:16.372Z,15.99
2023-01-02T08:25:43.811Z,16.59
2023-01-02T08:28:11.241Z,16.51
2023-01-02T08:30:42.096Z,16.79
2023-01-02T08:33:09.584Z,16.45
2023-01-02T08:35:38.826Z,16.73
2023-01-02T08:38:06.653Z,16.80
2023-01-02T08:40:34.195Z,16.42
2023-01-02T08:43:01.638Z,16.83
2023-01-02T08:45:29.108Z,16.62
2023-01-02T08:47:57.923Z,16.71
2023-01-02T08:50:25.390Z,16.64
2023-01-02T08:52:52.878Z,16.58
2023-01-02T08:55:20.467Z,17.06
2023-01-02T08:57:47.905Z,17.05
2023-01-02T09:00:16.595Z,17.16
2023-01-02T09:02:44.228Z,16.83
2023-01-02T09:05:13.138Z,17.35
2023-01-02T09:07:40.690Z,17.62
2023-01-02T09:10:09.254Z,18.08
2023-01-02T09:12:36.851Z,18.14
2023-01-02T09:15:04.856Z,18.14
2023-01-02T09:17:32.878Z,18.50
2023-01-02T09:20:00.343Z,18.23
2023-01-02T09:22:29.223Z,18.15
2023-01-02T09:24:56.663Z,18.30
2023-01-02T09:27:24.117Z,18.12
2023-01-02T09:29:53.788Z,18.06
2023-01-02T09:32:21.386Z,17.95
2023-01-02T09:34:50.887Z,18.19
2023-01-02T09:37:18.557Z,18.16
2023-01-02T09:39:47.411Z,18.38
2023-01-02T09:42:16.918Z,18.22
2023-01-02T09:44:48.919Z,18.59
2023-01-02T09:47:21.006Z,18.59
2023-01-02T09:49:52.345Z,18.65
2023-01-02T09:52:22.301Z,18.91
2023-01-02T09:54:51.657Z,18.77
2023-01-02T09:57:36.080Z,17.89
2023-01-02T10:00:09.639Z,17.96
2023-01-02T10:02:49.889Z,17.26
2023-01-02T10:05:53.443Z,17.85
2023-01-02T10:08:32.298Z,16.92
2023-01-02T10:11:13.754Z,16.69
2023-01-02T10:16:39.264Z,17.32
2023-01-02T10:19:15.757Z,17.47
2023-01-02T10:21:45.489Z,17.00
2023-01-02T10:24:16.692Z,17.24
2023-01-02T10:26:49.206Z,17.95
2023-01-02T10:29:24.444Z,17.74
2023-01-02T10:31:56.586Z,17.80
2023-01-02T10:34:25.221Z,17.55
2023-01-02T10:36:53.082Z,17.24
2023-01-02T10:39:23.025Z,17.81
2023-01-02T10:41:54.713Z,17.59
2023-01-02T10:44:27.013Z,17.77
2023-01-02T10:46:55.618Z,17.50
2023-01-02T10:49:25.069Z,17.68
2023-01-02T10:51:58.104Z,17.50
2023-01-02T10:54:25.557Z,17.13
2023-01-02T10:56:55.067Z,17.14
2023-01-02T10:59:25.492Z,16.84
2023-01-02T11:01:54.891Z,17.48
2023-01-02T11:04:25.280Z,17.73
2023-01-02T11:06:56.319Z,17.06
2023-01-02T11:09:26.202Z,17.38
2023-01-02T11:11:56.430Z,17.13
2023-01-02T11:14:28.086Z,17.44
2023-01-02T11:16:58.663Z,17.79
2023-01-02T11:19:29.792Z,17.82
2023-01-02T11:21:58.044Z,17.03
2023-01-02T11:24:28.530Z,16.51
2023-01-02T11:27:01.364Z,16.74
2023-01-02T11:29:32.675Z,16.87
2023-01-02T11:32:02.093Z,17.33
2023-01-02T11:34:34.288Z,17.34
2023-01-02T11:37:04.798Z,17.37
2023-01-02T11:39:34.713Z,17.05
2023-01-02T11:42:34.912Z,17.41
2023-01-02T11:45:08.260Z,17.50
2023-01-02T11:47:40.222Z,17.04
2023-01-02T11:50:08.570Z,17.37
2023-01-02T11:52:42.598Z,17.81
2023-01-02T11:55:26.290Z,17.38
2023-01-02T11:58:01.992Z,17.72
2023-01-02T12:00:33.735Z,18.03
2023-01-02T12:03:06.325Z,17.22
2023-01-02T12:05:42.433Z,17.54
2023-01-02T12:08:20.822Z,17.39
2023-01-02T12:10:57.001Z,17.74
2023-01-02T12:13:52.930Z,17.64
2023-01-02T12:16:30.835Z,17.56
2023-01-02T12:19:11.326Z,17.30
2023-01-02T12:21:46.218Z,17.16
2023-01-02T12:24:43.317Z,17.35
2023-01-02T12:27:18.927Z,17.71
2023-01-02T12:30:09.280Z,17.44
2023-01-02T12:32:59.961Z,17.56
2023-01-02T12:35:47.054Z,17.36
2023-01-02T12:38:22.627Z,16.99
2023-01-02T12:41:01.997Z,17.15
2023-01-02T12:43:52.354Z,17.61
2023-01-02T12:46:36.509Z,17.55
2023-01-02T12:49:19.274Z,17.30
2023-01-02T12:51:57.318Z,16.74
2023-01-02T12:54:45.547Z,16.30
2023-01-02T12:57:22.665Z,16.98
2023-01-02T13:00:12.556Z,16.48
2023-01-02T13:03:20.275Z,16.63
2023-01-02T13:05:54.700Z,17.08
2023-01-02T13:08:27.656Z,17.06
2023-01-02T13:10:57.125Z,17.13
2023-01-02T13:13:28.405Z,16.84
2023-01-02T13:16:03.433Z,16.72
2023-01-02T13:18:59.985Z,17.27
2023-01-02T13:21:33.837Z,17.12
2023-01-02T13:24:02.023Z,16.59
2023-01-02T13:26:31.376Z,16.70
2023-01-02T13:31:46.421Z,16.77
2023-01-02T13:34:23.182Z,17.27
2023-01-02T13:36:58.488Z,17.51
2023-01-02T13:39:30.059Z,17.05
2023-01-02T13:42:18.312Z,17.07
2023-01-02T13:44:48.449Z,17.16
2023-01-02T13:47:25.710Z,17.20
2023-01-02T13:50:08.400Z,17.10
2023-01-02T13:52:36.092Z,17.00
2023-01-02T13:55:31.593Z,17.27
2023-01-02T13:58:24.327Z,17.25
2023-01-02T14:00:55.207Z,16.82
2023-01-02T14:03:37.676Z,16.72
2023-01-02T14:06:31.938Z,16.61
2023-01-02T14:09:11.810Z,16.71
2023-01-02T14:11:57.016Z,16.71
2023-01-02T14:14:33.252Z,16.83
2023-01-02T14:17:14.596Z,16.39
2023-01-02T14:19:43.579Z,16.27
2023-01-02T14:22:15.240Z,16.71
2023-01-02T14:24:44.927Z,16.74
2023-01-02T14:27:23.424Z,17.30
2023-01-02T14:29:53.943Z,16.47
2023-01-02T14:32:25.076Z,16.20
2023-01-02T14:34:55.372Z,16.54
2023-01-02T14:37:34.319Z,16.83
2023-01-02T14:40:11.858Z,16.42
2023-01-02T14:42:58.223Z,16.57
2023-01-02T14:45:28.198Z,16.50
2023-01-02T14:48:01.827Z,16.58
2023-01-02T14:50:34.274Z,16.63
2023-01-02T14:53:10.853Z,16.96
2023-01-02T14:55:42.365Z,16.38
2023-01-02T14:58:20.179Z,16.54
2023-01-02T15:00:50.204Z,16.78
2023-01-02T15:03:27.792Z,16.73
2023-01-02T15:06:00.592Z,16.64
2023-01-02T15:08:37.404Z,16.66
2023-01-02T15:11:35.108Z,16.85
2023-01-02T15:14:04.464Z,16.44
2023-01-02T15:16:35.850Z,16.54
2023-01-02T15:19:03.769Z,16.89
2023-01-02T15:21:31.617Z,16.48
2023-01-02T15:24:01.965Z,16.07
2023-01-02T15:26:33.950Z,16.16
2023-01-02T15:29:04.471Z,16.06
2023-01-02T15:31:32.413Z,16.14
2023-01-02T15:34:01.328Z,15.58
2023-01-02T15:36:35.393Z,15.48
2023-01-02T15:39:08.636Z,15.40
2023-01-02T15:41:43.482Z,15.70
2023-01-02T15:44:30.737Z,15.68
2023-01-02T15:46:59.786Z,16.27
2023-01-02T15:49:27.884Z,16.12
2023-01-02T15:51:57.458Z,16.17
2023-01-02T15:54:27.129Z,15.16
2023-01-02T15:56:54.608Z,15.59
2023-01-02T15:59:27.751Z,15.84
2023-01-02T16:01:55.427Z,15.57
2023-01-02T16:04:27.659Z,15.59
2023-01-02T16:06:56.906Z,15.32
2023-01-02T16:09:28.063Z,15.60
2023-01-02T16:11:58.432Z,15.31
2023-01-02T16:14:33.018Z,15.12
2023-01-02T16:17:04.563Z,15.83
2023-01-02T16:19:36.138Z,15.54
2023-01-02T16:22:15.527Z,15.30
2023-01-02T16:24:48.379Z,15.39
2023-01-02T16:27:24.027Z,15.36
2023-01-02T16:29:53.244Z,15.18
2023-01-02T16:32:26.934Z,15.17
2023-01-02T16:35:03.439Z,15.40
2023-01-02T16:37:36.483Z,15.63
2023-01-02T16:41:00.676Z,15.68
2023-01-02T16:43:30.740Z,14.60
2023-01-02T16:45:58.862Z,14.14
2023-01-02T16:48:29.780Z,14.30
2023-01-02T16:50:59.135Z,14.47
2023-01-02T16:53:29.626Z,14.10
2023-01-02T16:55:58.536Z,14.26
2023-01-02T16:58:26.473Z,14.33
2023-01-02T17:00:55.540Z,14.39
2023-01-02T17:03:25.369Z,13.99
2023-01-02T17:06:02.418Z,14.13
2023-01-02T17:08:31.521Z,14.08
2023-01-02T17:11:00.945Z,13.86
2023-01-02T17:13:29.842Z,13.72
2023-01-02T17:15:57.788Z,14.06
2023-01-02T17:18:25.919Z,14.28
2023-01-02T17:20:53.494Z,14.55
2023-01-02T17:23:21.111Z,14.34
2023-01-02T17:25:48.962Z,15.00
2023-01-02T17:28:18.072Z,15.09
2023-01-02T17:30:49.989Z,14.97
2023-01-02T17:33:18.632Z,15.36
2023-01-02T17:35:46.547Z,14.87
2023-01-02T17:38:14.289Z,15.04
2023-01-02T17:40:41.733Z,14.97
2023-01-02T17:43:09.196Z,15.14
2023-01-02T17:45:38.070Z,14.82
2023-01-02T17:48:11.662Z,14.82
2023-01-02T17:50:41.012Z,14.86
2023-01-02T17:53:08.653Z,14.81
2023-01-02T17:55:36.272Z,14.87
2023-01-02T17:58:04.137Z,14.87
2023-01-02T18:00:31.550Z,14.97
2023-01-02T18:03:00.320Z,14.45
2023-01-02T18:05:27.950Z,14.60
2023-01-02T18:07:55.443Z,14.89
2023-01-02T18:10:25.955Z,14.85
2023-01-02T18:12:56.785Z,15.08
2023-01-02T18:15:24.568Z,14.71
2023-01-02T18:17:53.442Z,14.56
2023-01-02T18:20:23.804Z,15.21
2023-01-02T18:22:51.402Z,15.16
2023-01-02T18:25:20.889Z,14.99
2023-01-02T18:27:48.914Z,14.10
2023-01-02T18:30:20.979Z,13.83
2023-01-02T18:32:49.527Z,13.69
2023-01-02T18:35:55.582Z,13.86
2023-01-02T18:38:19.417Z,14.42
2023-01-02T18:40:47.240Z,14.54
2023-01-02T18:43:23.082Z,14.87
2023-01-02T18:45:54.418Z,15.22
2023-01-02T18:48:23.157Z,14.58
2023-01-02T18:50:57.860Z,14.19
2023-01-02T18:53:30.431Z,14.57
2023-01-02T18:56:03.107Z,15.07
2023-01-02T18:58:40.877Z,14.99
2023-01-02T19:01:23.048Z,14.64
2023-01-02T19:03:56.505Z,15.05
2023-01-02T19:06:25.778Z,15.09
2023-01-02T19:08:56.201Z,14.96
2023-01-02T19:11:51.843Z,14.98
2023-01-02T19:14:22.931Z,15.00
2023-01-02T19:16:57.364Z,15.04
2023-01-02T19:19:26.793Z,14.50
2023-01-02T19:21:55.788Z,14.89
2023-01-02T19:24:30.160Z,14.51
2023-01-02T19:26:59.603Z,13.74
2023-01-02T19:29:28.645Z,14.21
2023-01-02T19:32:02.372Z,14.18
2023-01-02T19:34:40.300Z,13.61
2023-01-02T19:37:35.588Z,14.03
2023-01-02T19:40:14.637Z,12.77
2023-01-02T19:42:46.129Z,12.96
2023-01-02T19:45:17.027Z,14.39
2023-01-02T19:47:44.930Z,13.55
2023-01-02T19:50:14.883Z,13.53
2023-01-02T19:52:42.655Z,13.87
2023-01-02T19:55:12.545Z,13.65
2023-01-02T19:57:40.340Z,14.21
2023-01-02T20:00:12.692Z,13.56
2023-01-02T20:02:41.003Z,13.23
2023-01-02T20:05:09.592Z,13.34
2023-01-02T20:07:37.009Z,13.88
2023-01-02T20:10:05.187Z,14.01
2023-01-02T20:12:35.500Z,13.94
2023-01-02T20:15:05.256Z,14.12
2023-01-02T20:17:33.045Z,14.00
2023-01-02T20:20:00.761Z,15.08
2023-01-02T20:22:28.877Z,16.09
2023-01-02T20:24:56.580Z,16.21
2023-01-02T20:27:24.897Z,16.58
2023-01-02T20:29:56.194Z,16.77
2023-01-02T20:32:24.743Z,16.56
2023-01-02T20:34:52.603Z,16.80
2023-01-02T20:37:21.047Z,16.70
2023-01-02T20:39:49.869Z,16.80
2023-01-02T20:42:18.018Z,17.17
2023-01-02T20:44:45.801Z,16.81
2023-01-02T20:47:14.771Z,17.11
2023-01-02T20:49:42.663Z,16.95
2023-01-02T20:52:10.429Z,17.08
2023-01-02T20:54:38.193Z,16.90
2023-01-02T20:57:05.650Z,16.63
2023-01-02T20:59:33.240Z,14.61
2023-01-02T21:02:00.803Z,13.92
2023-01-02T21:04:36.259Z,14.13
2023-01-02T21:07:04.145Z,14.25
2023-01-02T21:09:31.588Z,13.08
2023-01-02T21:11:58.993Z,12.83
2023-01-02T21:14:26.385Z,12.44
2023-01-02T21:16:54.734Z,12.20
2023-01-02T21:19:22.432Z,12.05
2023-01-02T21:21:51.215Z,12.14
2023-01-02T21:24:18.678Z,12.45
2023-01-02T21:26:46.113Z,13.27
2023-01-02T21:29:13.532Z,13.37
2023-01-02T21:31:41.021Z,13.23
2023-01-02T21:34:08.490Z,13.63
2023-01-02T21:36:37.021Z,13.50
2023-01-02T21:39:05.940Z,13.83
2023-01-02T21:41:50.940Z,13.64
2023-01-02T21:44:18.343Z,13.81
2023-01-02T21:46:45.866Z,13.77
2023-01-02T21:49:13.325Z,13.82
2023-01-02T21:51:40.742Z,13.87
2023-01-02T21:54:09.490Z,13.66
2023-01-02T21:56:36.909Z,13.76
2023-01-02T21:59:04.321Z,13.75
2023-01-02T22:01:32.018Z,13.10
2023-01-02T22:03:59.590Z,13.15
2023-01-02T22:06:33.808Z,13.42
2023-01-02T22:09:01.800Z,12.77
2023-01-02T22:11:48.109Z,13.09
2023-01-02T22:14:15.653Z,13.43
2023-01-02T22:16:43.145Z,13.54
2023-01-02T22:19:10.682Z,12.96
2023-01-02T22:21:38.487Z,13.41
2023-01-02T22:24:06.532Z,13.71
2023-01-02T22:26:36.459Z,13.73
2023-01-02T22:29:04.337Z,13.45
2023-01-02T22:31:32.557Z,12.97
2023-01-02T22:34:00.505Z,12.80
2023-01-02T22:36:31.321Z,13.28
2023-01-02T22:39:26.584Z,13.59
2023-01-02T22:41:51.207Z,13.37
2023-01-02T22:44:22.207Z,13.34
2023-01-02T22:46:52.256Z,13.68
2023-01-02T22:49:23.793Z,13.03
2023-01-02T22:52:09.624Z,13.29
2023-01-02T22:54:37.103Z,13.11
2023-01-02T22:57:10.165Z,13.49
2023-01-02T22:59:37.650Z,13.36
2023-01-02T23:02:05.789Z,12.71
2023-01-02T23:04:33.504Z,12.55
2023-01-02T23:09:49.474Z,13.23
2023-01-02T23:12:18.209Z,13.33
2023-01-02T23:14:45.670Z,12.43
2023-01-02T23:17:31.143Z,12.73
2023-01-02T23:19:58.581Z,12.32
2023-01-02T23:22:26.135Z,11.68
2023-01-02T23:24:54.042Z,12.61
2023-01-02T23:27:23.063Z,12.49
2023-01-02T23:29:50.498Z,12.53
2023-01-02T23:32:18.115Z,13.27
2023-01-02T23:34:45.562Z,13.02
2023-01-02T23:37:13.042Z,12.35
2023-01-02T23:39:40.676Z,12.70
2023-01-02T23:42:08.150Z,12.75
2023-01-02T23:44:38.340Z,12.68
2023-01-02T23:47:10.210Z,12.55
2023-01-02T23:49:40.886Z,12.83
2023-01-02T23:52:08.315Z,12.02
2023-01-02T23:54:35.760Z,12.06
2023-01-02T23:57:03.226Z,11.93
2023-01-02T23:59:30.672Z,12.43
